Terminal Aerodrome Forecast
Issued by NWS

Home | Current Version | Previous Version | Text Only | Print | Product List | Glossary On
Versions: 1 2 3 4 5 6 7 8 9 10 11 12 13 14 15 16 17 18 19 20
000
FTUS44 KCRP 241100
TAFLRD
TAF
KLRD 241131Z 2412/2512 16011KT P6SM BKN015
     FM241500 VRB04KT P6SM SCT020 BKN200
     FM241900 36010KT P6SM FEW250
     FM242300 05008KT P6SM SCT200
     FM251000 09006KT P6SM BKN015=

USA.gov is the U.S. government's official web portal to all federal, state and local government web resources and services.